createdAt,value
2018-02-03T00:00:50.518Z,99.99
2018-02-03T00:01:50.510Z,99.99
2018-02-03T00:02:50.501Z,99.99
2018-02-03T00:03:50.493Z,99.99
2018-02-03T00:04:50.481Z,99.99
2018-02-03T00:05:50.473Z,99.99
2018-02-03T00:06:50.466Z,99.99
2018-02-03T00:07:50.457Z,99.99
2018-02-03T00:08:50.451Z,99.99
2018-02-03T00:09:50.442Z,99.99
2018-02-03T00:10:50.433Z,99.99
2018-02-03T00:11:50.421Z,99.99
2018-02-03T00:12:50.412Z,99.99
2018-02-03T00:13:50.403Z,99.99
2018-02-03T00:14:50.393Z,99.99
2018-02-03T00:15:50.384Z,99.99
2018-02-03T00:16:50.371Z,99.99
2018-02-03T00:17:50.362Z,99.99
2018-02-03T00:18:50.352Z,99.99
2018-02-03T00:19:50.343Z,99.99
2018-02-03T00:20:50.338Z,99.99
2018-02-03T00:21:50.330Z,99.99
2018-02-03T00:22:50.319Z,99.99
2018-02-03T00:23:50.311Z,99.99
2018-02-03T00:24:50.297Z,99.99
2018-02-03T00:25:50.288Z,99.99
2018-02-03T00:26:50.279Z,99.99
2018-02-03T00:27:50.269Z,99.99
2018-02-03T00:28:50.259Z,99.99
2018-02-03T00:29:50.252Z,99.99
2018-02-03T00:30:50.241Z,99.99
2018-02-03T00:31:50.232Z,99.99
2018-02-03T00:32:50.228Z,99.99
2018-02-03T00:33:50.218Z,99.99
2018-02-03T00:34:50.208Z,99.99
2018-02-03T00:35:50.199Z,99.99
2018-02-03T00:36:50.190Z,99.99
2018-02-03T00:37:50.187Z,99.99
2018-02-03T00:38:50.172Z,99.99
2018-02-03T00:39:50.162Z,99.99
2018-02-03T00:40:50.149Z,99.99
2018-02-03T00:41:50.140Z,99.99
2018-02-03T00:42:50.131Z,99.99
2018-02-03T00:43:50.121Z,99.99
2018-02-03T00:44:50.113Z,99.99
2018-02-03T00:45:50.103Z,99.99
2018-02-03T00:46:50.093Z,99.99
2018-02-03T00:47:50.084Z,99.99
2018-02-03T00:48:50.080Z,99.99
2018-02-03T00:49:50.071Z,99.99
2018-02-03T00:50:50.062Z,99.99
2018-02-03T00:51:50.052Z,99.99
2018-02-03T00:52:50.043Z,99.99
2018-02-03T00:53:50.034Z,99.99
2018-02-03T00:54:50.023Z,99.99
2018-02-03T00:55:50.015Z,99.99
2018-02-03T00:56:50.003Z,99.99
2018-02-03T00:57:49.993Z,99.99
2018-02-03T00:58:49.983Z,99.99
2018-02-03T00:59:49.974Z,99.99
2018-02-03T01:00:49.965Z,99.99
2018-02-03T01:01:49.956Z,99.99
2018-02-03T01:02:49.946Z,99.99
2018-02-03T01:03:49.937Z,99.99
2018-02-03T01:04:49.931Z,99.99
2018-02-03T01:05:49.928Z,99.99
2018-02-03T01:06:49.913Z,99.99
2018-02-03T01:07:49.904Z,99.99
2018-02-03T01:08:49.895Z,99.99
2018-02-03T01:09:49.886Z,99.99
2018-02-03T01:10:49.876Z,99.99
2018-02-03T01:11:49.867Z,99.99
2018-02-03T01:12:49.854Z,99.99
2018-02-03T01:13:49.845Z,99.99
2018-02-03T01:14:49.835Z,99.99
2018-02-03T01:15:49.826Z,99.99
2018-02-03T01:16:49.817Z,99.99
2018-02-03T01:17:49.809Z,99.99
2018-02-03T01:18:49.803Z,99.99
2018-02-03T01:19:49.789Z,99.99
2018-02-03T01:20:49.784Z,99.99
2018-02-03T01:21:49.775Z,99.99
2018-02-03T01:22:49.765Z,99.99
2018-02-03T01:23:49.757Z,99.99
2018-02-03T01:24:49.744Z,99.99
2018-02-03T01:25:49.734Z,99.99
2018-02-03T01:26:49.724Z,99.99
2018-02-03T01:27:49.715Z,99.99
2018-02-03T01:28:49.711Z,99.99
2018-02-03T01:29:49.702Z,99.99
2018-02-03T01:30:49.691Z,99.99
2018-02-03T01:31:49.682Z,99.99
2018-02-03T01:32:49.678Z,99.99
2018-02-03T01:33:49.664Z,99.99
2018-02-03T01:34:49.654Z,99.99
2018-02-03T01:35:49.645Z,99.99
2018-02-03T01:36:49.632Z,99.99
2018-02-03T01:37:49.623Z,99.99
2018-02-03T01:38:49.614Z,99.99
2018-02-03T01:39:49.604Z,99.99
2018-02-03T01:40:49.595Z,99.99
2018-02-03T01:41:49.586Z,99.99
2018-02-03T01:42:49.576Z,99.99
2018-02-03T01:43:49.567Z,99.99
2018-02-03T01:44:49.562Z,99.99
2018-02-03T01:45:49.553Z,99.99
2018-02-03T01:46:49.544Z,99.99
2018-02-03T01:47:49.534Z,99.99
2018-02-03T01:48:49.525Z,99.99
2018-02-03T01:49:49.516Z,99.99
2018-02-03T01:50:49.506Z,99.99
2018-02-03T01:51:49.497Z,99.99
2018-02-03T01:52:49.484Z,99.99
2018-02-03T01:53:49.475Z,99.99
2018-02-03T01:54:49.465Z,99.99
2018-02-03T01:55:49.456Z,99.99
2018-02-03T01:56:49.446Z,99.99
2018-02-03T01:57:49.438Z,99.99
2018-02-03T01:58:49.428Z,99.99
2018-02-03T01:59:49.419Z,99.99
2018-02-03T02:00:49.414Z,99.99
2018-02-03T02:01:49.405Z,99.99
2018-02-03T02:02:49.397Z,99.99
2018-02-03T02:03:49.386Z,99.99
2018-02-03T02:04:49.378Z,99.99
2018-02-03T02:05:49.368Z,99.99
2018-02-03T02:06:49.358Z,99.99
2018-02-03T02:07:49.349Z,99.99
2018-02-03T02:08:49.336Z,99.99
2018-02-03T02:09:49.327Z,99.99
2018-02-03T02:10:49.317Z,99.99
2018-02-03T02:11:49.308Z,99.99
2018-02-03T02:12:49.299Z,99.99
2018-02-03T02:13:49.290Z,99.99
2018-02-03T02:14:49.282Z,99.99
2018-02-03T02:15:49.269Z,99.99
2018-02-03T02:16:49.265Z,99.99
2018-02-03T02:17:49.257Z,99.99
2018-02-03T02:18:49.249Z,99.99
2018-02-03T02:19:49.241Z,99.99
2018-02-03T02:20:49.228Z,99.99
2018-02-03T02:21:49.220Z,99.99
2018-02-03T02:22:49.210Z,99.99
2018-02-03T02:23:49.201Z,99.99
2018-02-03T02:24:49.187Z,99.99
2018-02-03T02:25:49.178Z,99.99
2018-02-03T02:26:49.168Z,99.99
2018-02-03T02:27:49.159Z,99.99
2018-02-03T02:28:49.150Z,99.99
2018-02-03T02:29:49.141Z,99.99
2018-02-03T02:30:49.131Z,99.99
2018-02-03T02:31:49.122Z,99.99
2018-02-03T02:32:49.117Z,99.99
2018-02-03T02:33:49.110Z,99.99
2018-02-03T02:34:49.099Z,99.99
2018-02-03T02:35:49.088Z,99.99
2018-02-03T02:36:49.079Z,99.99
2018-02-03T02:37:49.070Z,99.99
2018-02-03T02:38:49.061Z,99.99
2018-02-03T02:39:49.051Z,99.99
2018-02-03T02:40:49.038Z,99.99
2018-02-03T02:41:49.028Z,99.99
2018-02-03T02:42:49.019Z,99.99
2018-02-03T02:43:49.009Z,99.99
2018-02-03T02:44:49.000Z,99.99
2018-02-03T02:45:48.991Z,99.99
2018-02-03T02:46:48.980Z,99.99
2018-02-03T02:47:48.972Z,99.99
2018-02-03T02:48:48.967Z,99.99
2018-02-03T02:49:48.958Z,99.99
2018-02-03T02:50:48.947Z,99.99
2018-02-03T02:51:48.941Z,99.99
2018-02-03T02:52:48.930Z,99.99
2018-02-03T02:53:48.921Z,99.99
2018-02-03T02:54:48.910Z,99.99
2018-02-03T02:55:48.900Z,99.99
2018-02-03T02:56:48.888Z,99.99
2018-02-03T02:57:48.879Z,99.99
2018-02-03T02:58:48.867Z,99.99
2018-02-03T02:59:48.859Z,99.99
2018-02-03T03:00:48.849Z,99.99
2018-02-03T03:01:48.841Z,99.99
2018-02-03T03:02:48.830Z,99.99
2018-02-03T03:03:48.821Z,99.99
2018-02-03T03:04:48.816Z,99.99
2018-02-03T03:05:48.806Z,99.99
2018-02-03T03:06:48.796Z,99.99
2018-02-03T03:07:48.787Z,99.99
2018-02-03T03:08:48.778Z,99.99
2018-02-03T03:09:48.769Z,99.99
2018-02-03T03:10:48.759Z,99.99
2018-02-03T03:11:48.750Z,99.99
2018-02-03T03:12:48.736Z,99.99
2018-02-03T03:13:48.733Z,99.99
2018-02-03T03:14:48.717Z,99.99
2018-02-03T03:15:48.708Z,99.99
2018-02-03T03:16:48.702Z,99.99
2018-02-03T03:17:48.689Z,99.99
2018-02-03T03:18:48.679Z,99.99
2018-02-03T03:19:48.677Z,99.99
2018-02-03T03:20:48.666Z,99.99
2018-02-03T03:21:48.659Z,99.99
2018-02-03T03:22:48.646Z,99.99
2018-02-03T03:23:48.637Z,99.99
2018-02-03T03:24:48.627Z,99.99
2018-02-03T03:25:48.619Z,99.99
2018-02-03T03:26:48.609Z,99.99
2018-02-03T03:27:48.599Z,99.99
2018-02-03T03:28:48.585Z,99.99
2018-02-03T03:29:48.577Z,99.99
2018-02-03T03:30:48.567Z,99.99
2018-02-03T03:31:48.557Z,99.99
2018-02-03T03:32:48.554Z,99.99
2018-02-03T03:33:48.542Z,99.99
2018-02-03T03:34:48.532Z,99.99
2018-02-03T03:35:48.524Z,99.99
2018-02-03T03:36:48.509Z,99.99
2018-02-03T03:37:48.503Z,99.99
2018-02-03T03:38:48.490Z,99.99
2018-02-03T03:39:48.481Z,99.99
2018-02-03T03:40:48.501Z,99.99
2018-02-03T03:41:48.462Z,99.99
2018-02-03T03:42:48.451Z,99.99
2018-02-03T03:43:48.443Z,99.99
2018-02-03T03:44:48.437Z,99.99
2018-02-03T03:45:48.427Z,99.99
2018-02-03T03:46:48.418Z,99.99
2018-02-03T03:47:48.408Z,99.99
2018-02-03T03:48:48.399Z,99.99
2018-02-03T03:49:48.390Z,99.99
2018-02-03T03:50:48.379Z,99.99
2018-02-03T03:51:48.370Z,99.99
2018-02-03T03:52:48.357Z,99.99
2018-02-03T03:53:48.347Z,99.99
2018-02-03T03:54:48.336Z,99.99
2018-02-03T03:55:48.327Z,99.99
2018-02-03T03:56:48.318Z,99.99
2018-02-03T03:57:48.312Z,99.99
2018-02-03T03:58:48.298Z,99.99
2018-02-03T03:59:48.288Z,99.99
2018-02-03T04:00:48.283Z,99.99
2018-02-03T04:01:48.275Z,99.99
2018-02-03T04:02:48.264Z,99.99
2018-02-03T04:03:48.254Z,99.99
2018-02-03T04:04:48.246Z,99.99
2018-02-03T04:05:48.236Z,99.99
2018-02-03T04:06:48.226Z,99.99
2018-02-03T04:07:48.217Z,99.99
2018-02-03T04:08:48.203Z,99.99
2018-02-03T04:09:48.194Z,99.99
2018-02-03T04:10:48.183Z,99.99
2018-02-03T04:11:48.174Z,99.99
2018-02-03T04:12:48.163Z,99.99
2018-02-03T04:13:48.158Z,99.99
2018-02-03T04:14:48.144Z,99.99
2018-02-03T04:15:48.135Z,99.99
2018-02-03T04:16:48.130Z,99.99
2018-02-03T04:17:48.121Z,99.99
2018-02-03T04:18:48.110Z,99.99
2018-02-03T04:19:48.101Z,99.99
2018-02-03T04:20:48.091Z,99.99
2018-02-03T04:21:48.086Z,99.99
2018-02-03T04:22:48.071Z,99.99
2018-02-03T04:23:48.062Z,99.99
2018-02-03T04:24:48.048Z,99.99
2018-02-03T04:25:48.039Z,99.99
2018-02-03T04:26:48.028Z,99.99
2018-02-03T04:27:48.019Z,99.99
2018-02-03T04:28:48.010Z,99.99
2018-02-03T04:29:48.001Z,99.99
2018-02-03T04:30:47.990Z,99.99
2018-02-03T04:31:47.981Z,99.99
2018-02-03T04:32:47.977Z,99.99
2018-02-03T04:33:47.966Z,99.99
2018-02-03T04:34:47.956Z,99.99
2018-02-03T04:35:47.947Z,99.99
2018-02-03T04:36:47.933Z,99.99
2018-02-03T04:37:47.925Z,99.99
2018-02-03T04:38:47.913Z,99.99
2018-02-03T04:39:47.904Z,99.99
2018-02-03T04:40:47.899Z,99.99
2018-02-03T04:41:47.889Z,99.99
2018-02-03T04:42:47.882Z,99.99
2018-02-03T04:43:47.870Z,99.99
2018-02-03T04:44:47.860Z,99.99
2018-02-03T04:45:47.851Z,99.99
2018-02-03T04:46:47.840Z,99.99
2018-02-03T04:47:47.831Z,99.99
2018-02-03T04:48:47.817Z,99.99
2018-02-03T04:49:47.808Z,99.99
2018-02-03T04:50:47.798Z,99.99
2018-02-03T04:51:47.788Z,99.99
2018-02-03T04:52:47.779Z,99.99
2018-02-03T04:53:47.769Z,99.99
2018-02-03T04:54:47.764Z,99.99
2018-02-03T04:55:47.750Z,99.99
2018-02-03T04:56:47.744Z,99.99
2018-02-03T04:57:47.735Z,99.99
2018-02-03T04:58:47.725Z,99.99
2018-02-03T04:59:47.715Z,99.99
2018-02-03T05:00:47.706Z,99.99
2018-02-03T05:01:47.696Z,99.99
2018-02-03T05:02:47.685Z,99.99
2018-02-03T05:03:47.676Z,99.99
2018-02-03T05:04:47.662Z,99.99
2018-02-03T05:05:47.653Z,99.99
2018-02-03T05:06:47.642Z,99.99
2018-02-03T05:07:47.633Z,99.99
2018-02-03T05:08:47.623Z,99.99
2018-02-03T05:09:47.614Z,99.99
2018-02-03T05:10:47.606Z,99.99
2018-02-03T05:11:47.594Z,99.99
2018-02-03T05:12:47.588Z,99.99
2018-02-03T05:13:47.579Z,99.99
2018-02-03T05:14:47.569Z,99.99
2018-02-03T05:15:47.560Z,99.99
2018-02-03T05:16:47.550Z,99.99
2018-02-03T05:17:47.540Z,99.99
2018-02-03T05:18:47.529Z,99.99
2018-02-03T05:19:47.520Z,99.99
2018-02-03T05:20:47.506Z,99.99
2018-02-03T05:21:47.497Z,99.99
2018-02-03T05:22:47.486Z,99.99
2018-02-03T05:23:47.477Z,99.99
2018-02-03T05:24:47.467Z,99.99
2018-02-03T05:25:47.457Z,99.99
2018-02-03T05:26:47.447Z,99.99
2018-02-03T05:27:47.440Z,99.99
2018-02-03T05:28:47.432Z,99.99
2018-02-03T05:29:47.422Z,99.99
2018-02-03T05:30:47.412Z,99.99
2018-02-03T05:31:47.402Z,99.99
2018-02-03T05:32:47.394Z,99.99
2018-02-03T05:33:47.383Z,99.99
2018-02-03T05:34:47.372Z,99.99
2018-02-03T05:35:47.363Z,99.99
2018-02-03T05:36:47.349Z,99.99
2018-02-03T05:37:47.339Z,99.99
2018-02-03T05:38:47.329Z,99.99
2018-02-03T05:39:47.321Z,99.99
2018-02-03T05:40:47.314Z,99.99
2018-02-03T05:41:47.304Z,99.99
2018-02-03T05:42:47.293Z,99.99
2018-02-03T05:43:47.283Z,99.99
2018-02-03T05:44:47.270Z,99.99
2018-02-03T05:45:47.260Z,99.99
2018-02-03T05:46:47.249Z,99.99
2018-02-03T05:47:47.240Z,99.99
2018-02-03T05:48:47.230Z,99.99
2018-02-03T05:49:47.220Z,99.99
2018-02-03T05:50:47.210Z,99.99
2018-02-03T05:51:47.200Z,99.99
2018-02-03T05:52:47.197Z,99.99
2018-02-03T05:53:47.185Z,99.99
2018-02-03T05:54:47.173Z,99.99
2018-02-03T05:55:47.163Z,99.99
2018-02-03T05:56:47.153Z,99.99
2018-02-03T05:57:47.144Z,99.99
2018-02-03T05:58:47.133Z,99.99
2018-02-03T05:59:47.123Z,99.99
2018-02-03T06:00:47.109Z,99.99
2018-02-03T06:01:47.099Z,99.99
2018-02-03T06:02:47.088Z,99.99
2018-02-03T06:03:47.079Z,99.99
2018-02-03T06:04:47.069Z,99.99
2018-02-03T06:05:47.058Z,99.99
2018-02-03T06:06:47.048Z,99.99
2018-02-03T06:07:47.038Z,99.99
2018-02-03T06:08:47.033Z,99.99
2018-02-03T06:09:47.023Z,99.99
2018-02-03T06:10:47.011Z,99.99
2018-02-03T06:11:47.001Z,99.99
2018-02-03T06:12:46.992Z,99.99
2018-02-03T06:13:46.981Z,99.99
2018-02-03T06:14:46.970Z,99.99
2018-02-03T06:15:46.968Z,99.99
2018-02-03T06:16:46.946Z,99.99
2018-02-03T06:17:46.937Z,99.99
2018-02-03T06:18:46.926Z,99.99
2018-02-03T06:19:46.915Z,99.99
2018-02-03T06:20:46.906Z,99.99
2018-02-03T06:21:46.896Z,99.99
2018-02-03T06:22:46.885Z,99.99
2018-02-03T06:23:46.875Z,99.99
2018-02-03T06:24:46.871Z,99.99
2018-02-03T06:25:46.859Z,99.99
2018-02-03T06:26:46.852Z,99.99
2018-02-03T06:27:46.838Z,99.99
2018-02-03T06:28:46.828Z,99.99
2018-02-03T06:29:46.824Z,99.99
2018-02-03T06:30:46.809Z,99.99
2018-02-03T06:31:46.797Z,99.99
2018-02-03T06:32:46.783Z,99.99
2018-02-03T06:33:46.773Z,99.99
2018-02-03T06:34:46.762Z,99.99
2018-02-03T06:35:46.753Z,99.99
2018-02-03T06:36:46.742Z,99.99
2018-02-03T06:37:46.733Z,99.99
2018-02-03T06:38:46.721Z,99.99
2018-02-03T06:39:46.710Z,99.99
2018-02-03T06:40:46.704Z,99.99
2018-02-03T06:41:46.695Z,99.99
2018-02-03T06:42:46.683Z,99.99
2018-02-03T06:43:46.673Z,99.99
2018-02-03T06:44:46.662Z,99.99
2018-02-03T06:45:46.649Z,99.99
2018-02-03T06:46:46.637Z,99.99
2018-02-03T06:47:46.628Z,99.99
2018-02-03T06:48:46.622Z,99.99
2018-02-03T06:49:46.612Z,99.99
2018-02-03T06:50:46.601Z,99.99
2018-02-03T06:51:46.591Z,99.99
2018-02-03T06:52:46.580Z,99.99
2018-02-03T06:53:46.572Z,99.99
2018-02-03T06:54:46.560Z,99.99
2018-02-03T06:55:46.549Z,99.99
2018-02-03T06:56:46.535Z,99.99
2018-02-03T06:57:46.525Z,99.99
2018-02-03T06:58:46.514Z,99.99
2018-02-03T06:59:46.504Z,99.99
2018-02-03T07:00:46.494Z,99.99
2018-02-03T07:01:46.485Z,99.99
2018-02-03T07:02:46.473Z,99.99
2018-02-03T07:03:46.466Z,99.99
2018-02-03T07:04:46.457Z,99.99
2018-02-03T07:05:46.448Z,99.99
2018-02-03T07:06:46.442Z,99.99
2018-02-03T07:07:46.426Z,99.99
2018-02-03T07:08:46.416Z,99.99
2018-02-03T07:09:46.408Z,99.99
2018-02-03T07:10:46.395Z,99.99
2018-02-03T07:11:46.386Z,99.99
2018-02-03T07:12:46.371Z,99.99
2018-02-03T07:13:46.361Z,99.99
2018-02-03T07:14:46.354Z,99.99
2018-02-03T07:15:46.346Z,99.99
2018-02-03T07:16:46.330Z,99.99
2018-02-03T07:17:46.321Z,99.99
2018-02-03T07:18:46.358Z,99.99
2018-02-03T07:19:46.299Z,99.99
2018-02-03T07:20:46.294Z,99.99
2018-02-03T07:21:46.285Z,99.99
2018-02-03T07:22:46.273Z,99.99
2018-02-03T07:23:46.266Z,99.99
2018-02-03T07:24:46.253Z,99.99
2018-02-03T07:25:46.243Z,99.99
2018-02-03T07:26:46.274Z,99.99
2018-02-03T07:27:46.222Z,99.99
2018-02-03T07:28:46.208Z,99.99
2018-02-03T07:29:46.198Z,99.99
2018-02-03T07:30:46.187Z,99.99
2018-02-03T07:31:46.178Z,99.99
2018-02-03T07:32:46.167Z,99.99
2018-02-03T07:33:46.157Z,99.99
2018-02-03T07:34:46.147Z,99.99
2018-02-03T07:35:46.138Z,99.99
2018-02-03T07:36:46.131Z,99.99
2018-02-03T07:37:46.122Z,99.99
2018-02-03T07:38:46.111Z,99.99
2018-02-03T07:39:46.101Z,99.99
2018-02-03T07:40:46.091Z,99.99
2018-02-03T07:41:46.081Z,99.99
2018-02-03T07:42:46.070Z,99.99
2018-02-03T07:43:46.061Z,99.99
2018-02-03T07:44:46.049Z,99.99
2018-02-03T07:45:46.037Z,99.99
2018-02-03T07:46:46.029Z,99.99
2018-02-03T07:47:46.016Z,99.99
2018-02-03T07:48:46.011Z,99.99
2018-02-03T07:49:46.000Z,99.99
2018-02-03T07:50:45.990Z,99.99
2018-02-03T07:51:45.980Z,99.99
2018-02-03T07:52:45.966Z,99.99
2018-02-03T07:53:45.955Z,99.99
2018-02-03T07:54:45.946Z,99.99
2018-02-03T07:55:45.936Z,99.99
2018-02-03T07:56:45.926Z,99.99
2018-02-03T07:57:45.917Z,99.99
2018-02-03T07:58:45.906Z,99.99
2018-02-03T07:59:45.897Z,99.99
2018-02-03T08:00:45.893Z,99.99
2018-02-03T08:01:45.881Z,99.99
2018-02-03T08:02:45.871Z,99.99
2018-02-03T08:03:45.860Z,99.99
2018-02-03T08:04:45.851Z,99.99
2018-02-03T08:05:45.841Z,99.99
2018-02-03T08:06:45.836Z,99.99
2018-02-03T08:07:45.821Z,99.99
2018-02-03T08:08:45.808Z,99.99
2018-02-03T08:09:45.798Z,99.99
2018-02-03T08:10:45.788Z,99.99
2018-02-03T08:11:45.780Z,99.99
2018-02-03T08:12:45.769Z,99.99
2018-02-03T08:13:45.759Z,99.99
2018-02-03T08:14:45.750Z,99.99
2018-02-03T08:15:45.739Z,99.99
2018-02-03T08:16:45.735Z,99.99
2018-02-03T08:17:45.725Z,99.99
2018-02-03T08:18:45.716Z,99.99
2018-02-03T08:19:45.706Z,99.99
2018-02-03T08:20:45.696Z,99.99
2018-02-03T08:21:45.687Z,99.99
2018-02-03T08:22:45.677Z,99.99
2018-02-03T08:23:45.667Z,99.99
2018-02-03T08:24:45.658Z,99.99
2018-02-03T08:25:45.645Z,99.99
2018-02-03T08:26:45.635Z,99.99
2018-02-03T08:27:45.626Z,99.99
2018-02-03T08:28:45.616Z,99.99
2018-02-03T08:29:45.607Z,99.99
2018-02-03T08:30:45.597Z,99.99
2018-02-03T08:31:45.588Z,99.99
2018-02-03T08:32:45.583Z,99.99
2018-02-03T08:33:45.574Z,99.99
2018-02-03T08:34:45.564Z,99.99
2018-02-03T08:35:45.555Z,99.99
2018-02-03T08:36:45.546Z,99.99
2018-02-03T08:37:45.543Z,99.99
2018-02-03T08:38:45.533Z,99.99
2018-02-03T08:39:45.519Z,99.99
2018-02-03T08:40:45.546Z,99.99
2018-02-03T08:41:45.497Z,99.99
2018-02-03T08:42:45.505Z,99.99
2018-02-03T08:43:45.500Z,99.99
2018-02-03T08:44:45.733Z,99.99
2018-02-03T08:45:45.488Z,99.99
2018-02-03T08:46:45.501Z,99.99
2018-02-03T08:47:45.467Z,99.99
2018-02-03T08:48:45.442Z,99.99
2018-02-03T08:49:45.433Z,99.99
2018-02-03T08:50:45.425Z,99.99
2018-02-03T08:51:45.417Z,99.99
2018-02-03T08:52:45.404Z,99.99
2018-02-03T08:53:45.396Z,99.99
2018-02-03T08:54:45.387Z,99.99
2018-02-03T08:55:45.379Z,99.99
2018-02-03T08:56:45.375Z,99.99
2018-02-03T08:57:45.368Z,99.99
2018-02-03T08:58:45.359Z,99.99
2018-02-03T08:59:45.352Z,99.99
2018-02-03T09:00:45.344Z,99.99
2018-02-03T09:01:45.339Z,99.99
2018-02-03T09:02:45.356Z,99.99
2018-02-03T09:03:45.320Z,99.99
2018-02-03T09:04:45.314Z,99.99
2018-02-03T09:05:45.301Z,99.99
2018-02-03T09:06:45.293Z,99.99
2018-02-03T09:07:45.285Z,99.99
2018-02-03T09:08:45.278Z,99.99
2018-02-03T09:09:45.270Z,99.99
2018-02-03T09:10:45.260Z,99.99
2018-02-03T09:11:45.254Z,99.99
2018-02-03T09:12:45.251Z,99.99
2018-02-03T09:13:45.243Z,99.99
2018-02-03T09:14:45.234Z,99.99
2018-02-03T09:15:45.255Z,99.99
2018-02-03T09:16:45.219Z,99.99
2018-02-03T09:17:45.218Z,99.99
2018-02-03T09:18:45.203Z,99.99
2018-02-03T09:19:45.195Z,99.99
2018-02-03T09:20:45.224Z,99.99
2018-02-03T09:21:45.176Z,99.99
2018-02-03T09:22:45.167Z,99.99
2018-02-03T09:23:45.160Z,99.99
2018-02-03T09:24:45.152Z,99.99
2018-02-03T09:25:45.195Z,99.99
2018-02-03T09:26:45.138Z,99.99
2018-02-03T09:27:45.131Z,99.99
2018-02-03T09:28:45.128Z,99.99
2018-02-03T09:29:45.120Z,99.99
2018-02-03T09:30:45.111Z,99.99
2018-02-03T09:31:45.112Z,99.99
2018-02-03T09:32:45.096Z,99.99
2018-02-03T09:33:45.092Z,99.99
2018-02-03T09:34:45.080Z,99.99
2018-02-03T09:35:45.075Z,99.99
2018-02-03T09:36:45.061Z,99.99
2018-02-03T09:37:45.071Z,99.99
2018-02-03T09:38:45.045Z,99.99
2018-02-03T09:39:45.040Z,99.99
2018-02-03T09:40:45.032Z,99.99
2018-02-03T09:41:45.024Z,99.99
2018-02-03T09:42:45.017Z,99.99
2018-02-03T09:43:45.009Z,99.99
2018-02-03T09:44:45.017Z,99.99
2018-02-03T09:45:44.998Z,99.99
2018-02-03T09:46:44.990Z,99.51
2018-02-03T09:47:44.983Z,95.84
2018-02-03T09:48:44.976Z,92.84
2018-02-03T09:49:44.970Z,91.36
2018-02-03T09:50:44.963Z,90.64
2018-02-03T09:51:44.957Z,87.74
2018-02-03T09:52:44.947Z,86.35
2018-02-03T09:53:44.942Z,85.01
2018-02-03T09:54:44.936Z,83.39
2018-02-03T09:55:44.931Z,82.34
2018-02-03T09:56:44.931Z,82.09
2018-02-03T09:57:44.927Z,81.67
2018-02-03T09:58:44.922Z,81.58
2018-02-03T09:59:44.918Z,81.73
2018-02-03T10:00:44.910Z,80.68
2018-02-03T10:01:44.959Z,80.92
2018-02-03T10:02:44.903Z,81.49
2018-02-03T10:03:44.900Z,81.84
2018-02-03T10:04:44.896Z,82.60
2018-02-03T10:05:44.893Z,82.46
2018-02-03T10:06:44.887Z,82.51
2018-02-03T10:07:44.884Z,83.94
2018-02-03T10:08:44.891Z,84.80
2018-02-03T10:09:44.888Z,85.61
2018-02-03T10:10:44.876Z,86.90
2018-02-03T10:11:44.876Z,87.46
2018-02-03T10:12:44.868Z,87.65
2018-02-03T10:13:44.872Z,86.16
2018-02-03T10:14:44.860Z,83.14
2018-02-03T10:15:44.860Z,81.66
2018-02-03T10:16:44.849Z,79.75
2018-02-03T10:17:44.854Z,78.93
2018-02-03T10:18:44.842Z,76.94
2018-02-03T10:19:44.839Z,74.16
2018-02-03T10:20:44.841Z,72.13
2018-02-03T10:21:44.879Z,69.13
2018-02-03T10:22:44.831Z,68.21
2018-02-03T10:23:44.830Z,67.54
2018-02-03T10:24:44.834Z,67.66
2018-02-03T10:25:44.833Z,67.31
2018-02-03T10:26:44.831Z,67.37
2018-02-03T10:27:44.831Z,67.82
2018-02-03T10:28:44.832Z,68.07
2018-02-03T10:29:44.830Z,68.76
2018-02-03T10:30:44.830Z,69.53
2018-02-03T10:31:44.830Z,70.22
2018-02-03T10:32:44.825Z,72.03
2018-02-03T10:33:44.825Z,73.05
2018-02-03T10:34:44.824Z,73.77
2018-02-03T10:35:44.823Z,75.68
2018-02-03T10:36:44.824Z,76.98
2018-02-03T10:37:44.823Z,78.78
2018-02-03T10:38:44.822Z,79.59
2018-02-03T10:39:44.821Z,79.64
2018-02-03T10:40:44.824Z,80.31
2018-02-03T10:41:44.825Z,80.79
2018-02-03T10:42:44.821Z,80.88
2018-02-03T10:43:44.820Z,80.69
2018-02-03T10:44:44.819Z,81.46
2018-02-03T10:45:44.817Z,82.12
2018-02-03T10:46:44.815Z,82.41
2018-02-03T10:47:44.813Z,82.31
2018-02-03T10:48:44.808Z,82.31
2018-02-03T10:49:44.806Z,82.69
2018-02-03T10:50:44.806Z,82.75
2018-02-03T10:51:44.803Z,83.22
2018-02-03T10:52:44.799Z,83.84
2018-02-03T10:53:44.798Z,84.08
2018-02-03T10:54:44.794Z,84.17
2018-02-03T10:55:44.792Z,84.65
2018-02-03T10:56:44.794Z,85.41
2018-02-03T10:57:44.792Z,86.75
2018-02-03T10:58:44.788Z,86.79
2018-02-03T10:59:44.786Z,86.22
2018-02-03T11:00:44.783Z,85.60
2018-02-03T11:01:44.782Z,85.60
2018-02-03T11:02:44.777Z,85.80
2018-02-03T11:03:44.774Z,86.08
2018-02-03T11:04:44.767Z,85.80
2018-02-03T11:05:44.763Z,86.18
2018-02-03T11:06:44.759Z,85.32
2018-02-03T11:07:44.756Z,85.80
2018-02-03T11:08:44.753Z,85.80
2018-02-03T11:09:44.749Z,85.70
2018-02-03T11:10:44.746Z,85.89
2018-02-03T11:11:44.842Z,85.80
2018-02-03T11:12:44.743Z,85.80
2018-02-03T11:13:44.739Z,85.70
2018-02-03T11:14:44.734Z,86.84
2018-02-03T11:15:44.730Z,87.13
2018-02-03T11:16:44.726Z,86.94
2018-02-03T11:17:44.723Z,87.13
2018-02-03T11:18:44.721Z,87.03
2018-02-03T11:19:44.714Z,86.55
2018-02-03T11:20:44.705Z,86.32
2018-02-03T11:21:44.702Z,86.51
2018-02-03T11:22:44.697Z,86.99
2018-02-03T11:23:44.698Z,87.37
2018-02-03T11:24:44.689Z,87.18
2018-02-03T11:25:44.684Z,87.13
2018-02-03T11:26:44.679Z,87.56
2018-02-03T11:27:44.675Z,87.42
2018-02-03T11:28:44.676Z,87.90
2018-02-03T11:29:44.670Z,88.70
2018-02-03T11:30:44.668Z,89.37
2018-02-03T11:31:44.660Z,88.46
2018-02-03T11:32:44.656Z,88.70
2018-02-03T11:33:44.663Z,88.28
2018-02-03T11:34:44.646Z,88.94
2018-02-03T11:35:44.642Z,89.51
2018-02-03T11:36:44.633Z,89.42
2018-02-03T11:37:44.629Z,89.61
2018-02-03T11:38:44.623Z,89.99
2018-02-03T11:39:44.619Z,89.51
2018-02-03T11:40:44.614Z,89.89
2018-02-03T11:41:44.610Z,90.28
2018-02-03T11:42:44.604Z,90.28
2018-02-03T11:43:44.599Z,89.99
2018-02-03T11:44:44.602Z,90.28
2018-02-03T11:45:44.594Z,90.28
2018-02-03T11:46:44.589Z,90.66
2018-02-03T11:47:44.584Z,91.70
2018-02-03T11:48:44.580Z,90.99
2018-02-03T11:49:44.576Z,90.37
2018-02-03T11:50:44.568Z,89.65
2018-02-03T11:51:44.564Z,89.14
2018-02-03T11:52:44.555Z,89.37
2018-02-03T11:53:44.550Z,88.99
2018-02-03T11:54:44.544Z,88.51
2018-02-03T11:55:44.539Z,88.89
2018-02-03T11:56:44.534Z,89.65
2018-02-03T11:57:44.530Z,89.65
2018-02-03T11:58:44.523Z,89.75
2018-02-03T11:59:44.519Z,89.65
2018-02-03T12:00:44.518Z,90.13
2018-02-03T12:01:44.514Z,90.51
2018-02-03T12:02:44.508Z,89.65
2018-02-03T12:03:44.502Z,89.75
2018-02-03T12:04:44.493Z,90.03
2018-02-03T12:05:44.488Z,88.70
2018-02-03T12:06:44.482Z,88.79
2018-02-03T12:07:44.477Z,88.99
2018-02-03T12:08:44.479Z,88.66
2018-02-03T12:09:44.472Z,88.70
2018-02-03T12:10:44.466Z,88.79
2018-02-03T12:11:44.461Z,88.70
2018-02-03T12:12:44.459Z,89.37
2018-02-03T12:13:44.450Z,88.94
2018-02-03T12:14:44.444Z,89.04
2018-02-03T12:15:44.439Z,89.32
2018-02-03T12:16:44.430Z,88.85
2018-02-03T12:17:44.425Z,89.42
2018-02-03T12:18:44.418Z,89.70
2018-02-03T12:19:44.413Z,89.99
2018-02-03T12:20:44.408Z,90.94
2018-02-03T12:21:44.402Z,90.18
2018-02-03T12:22:44.396Z,89.80
2018-02-03T12:23:44.392Z,89.70
2018-02-03T12:24:44.390Z,89.51
2018-02-03T12:25:44.384Z,89.70
2018-02-03T12:26:44.378Z,89.99
2018-02-03T12:27:44.373Z,89.89
2018-02-03T12:28:44.367Z,90.56
2018-02-03T12:29:44.362Z,90.47
2018-02-03T12:30:44.355Z,90.37
2018-02-03T12:31:44.350Z,89.99
2018-02-03T12:32:44.339Z,90.56
2018-02-03T12:33:44.335Z,90.47
2018-02-03T12:34:44.333Z,90.08
2018-02-03T12:35:44.328Z,88.94
2018-02-03T12:36:44.322Z,89.61
2018-02-03T12:37:44.313Z,89.65
2018-02-03T12:38:44.308Z,88.66
2018-02-03T12:39:44.300Z,88.51
2018-02-03T12:40:44.302Z,88.89
2018-02-03T12:41:44.295Z,88.79
2018-02-03T12:42:44.288Z,88.13
2018-02-03T12:43:44.281Z,88.60
2018-02-03T12:44:44.274Z,88.04
2018-02-03T12:45:44.268Z,88.51
2018-02-03T12:46:44.261Z,88.60
2018-02-03T12:47:44.257Z,88.60
2018-02-03T12:48:44.246Z,87.27
2018-02-03T12:49:44.241Z,87.61
2018-02-03T12:50:44.234Z,87.80
2018-02-03T12:51:44.231Z,87.32
2018-02-03T12:52:44.225Z,88.18